DW5321 Paradera AW current weather conditions

sailwx.info

Wind from 084 at 7 knots gusting 13

Air temperature 28.3° C
Dewpoint 25.9° C

Last reported at 2016-Apr-28 22:33 UTC.
Time now 2016-Apr-28 23:52 UTC

Location: N 12°33' W 070°00'.
View on Google Maps.

See reports from other nearby stations

  
Tides and Currents Weather Stations Pressure Air Temp Water Temp Dewpoint Dewpoint Depression Visibility Wind Speed Wind Dir Waves Ship Positions
date/time (UTC)wind fromknots sea level pressurealtimeterstation pressurevisibilityair tempwater tempwave heightnotes
2016-Apr-28 22:33 084 7 gusting 13 28.3
2016-Apr-28 22:17 103 8 gusting 16 28.3
2016-Apr-28 22:01 089 6 gusting 16 28.9
2016-Apr-28 21:47 030 8 gusting 14 28.9
2016-Apr-28 21:32 110 11 gusting 17 28.9
2016-Apr-28 21:17 090 8 gusting 16 28.9
2016-Apr-28 21:01 108 11 gusting 17 29.4
2016-Apr-28 20:46 094 7 gusting 13 30.0
2016-Apr-28 20:30 124 9 gusting 15 30.0
2016-Apr-28 20:15 073 10 gusting 17 30.0
2016-Apr-28 20:00 070 10 gusting 15 30.0
2016-Apr-28 19:45 099 11 gusting 16 30.6
2016-Apr-28 19:30 076 10 gusting 17 30.6
2016-Apr-28 19:15 114 9 gusting 18 30.6
2016-Apr-28 18:59 063 11 gusting 19 30.0
2016-Apr-28 18:43 092 11 gusting 17 30.6
2016-Apr-28 18:28 092 6 gusting 13 30.6
2016-Apr-28 18:13 094 7 gusting 15 31.1
2016-Apr-28 17:58 133 11 gusting 17 30.6
2016-Apr-28 17:43 098 10 gusting 17 30.0
2016-Apr-28 17:28 071 8 gusting 15 31.1
2016-Apr-28 17:12 105 12 gusting 18 30.6
2016-Apr-28 16:56 096 11 gusting 19 30.6
2016-Apr-28 16:42 058 10 gusting 19 30.6
2016-Apr-28 16:26 051 8 gusting 15 30.0
2016-Apr-28 16:11 081 11 gusting 16 30.0
2016-Apr-28 15:56 127 11 gusting 17 30.0
2016-Apr-28 15:41 058 10 gusting 16 30.0
2016-Apr-28 15:26 096 11 gusting 16 30.0
2016-Apr-28 15:11 129 8 gusting 14 29.4
2016-Apr-28 14:56 100 6 gusting 13 30.0
2016-Apr-28 14:41 077 6 gusting 13 30.0
2016-Apr-28 14:26 096 12 gusting 23 29.4
2016-Apr-28 14:11 127 12 gusting 19 29.4
2016-Apr-28 13:56 114 13 gusting 18 29.4
2016-Apr-28 13:41 095 13 gusting 19 29.4
2016-Apr-28 13:26 117 13 gusting 19 28.9
2016-Apr-28 13:11 124 13 gusting 19 29.4
2016-Apr-28 12:56 094 7 gusting 16 28.9
2016-Apr-28 12:41 101 7 gusting 16 28.9
2016-Apr-28 12:26 117 9 gusting 16 28.3
2016-Apr-28 12:12 072 9 gusting 17 28.3
2016-Apr-28 11:56 097 8 gusting 16 28.3
2016-Apr-28 11:40 084 6 gusting 13 27.8
2016-Apr-28 11:25 090 7 gusting 13 27.8
2016-Apr-28 11:10 124 6 gusting 11 27.2
2016-Apr-28 10:55 115 5 gusting 10 27.2
2016-Apr-28 10:40 058 5 gusting 13 27.2
2016-Apr-28 10:25 085 5 gusting 10 27.2
2016-Apr-28 10:10 071 6 gusting 9 27.2
2016-Apr-28 09:55 110 5 gusting 13 27.2
2016-Apr-28 09:40 107 6 gusting 9 27.2
2016-Apr-28 09:25 103 6 gusting 10 27.2
2016-Apr-28 09:10 121 4 gusting 8 27.2
2016-Apr-28 08:55 084 5 gusting 10 27.2
2016-Apr-28 08:40 082 6 gusting 10 27.2
2016-Apr-28 08:25 084 6 gusting 13 27.2
2016-Apr-28 08:10 076 7 gusting 13 27.2
2016-Apr-28 07:55 112 7 gusting 12 27.2
2016-Apr-28 07:40 082 6 gusting 12 27.2
2016-Apr-28 07:25 104 6 gusting 12 27.2
2016-Apr-28 07:10 075 5 gusting 9 27.2
2016-Apr-28 06:55 082 5 gusting 10 27.2
2016-Apr-28 06:40 101 5 gusting 9 27.2
2016-Apr-28 06:25 082 4 gusting 6 27.2
2016-Apr-28 06:10 071 6 gusting 12 27.2
2016-Apr-28 05:55 095 6 gusting 11 27.2
2016-Apr-28 05:40 099 6 gusting 11 27.2
2016-Apr-28 05:25 108 4 gusting 12 27.2
2016-Apr-28 05:10 104 6 gusting 13 27.2
2016-Apr-28 04:55 110 9 gusting 16 27.2
2016-Apr-28 04:40 089 6 gusting 12 27.2
2016-Apr-28 04:25 113 7 gusting 15 27.2
2016-Apr-28 04:10 073 6 gusting 13 27.2
2016-Apr-28 03:55 088 7 gusting 13 27.8
2016-Apr-28 03:40 124 8 gusting 14 27.8
2016-Apr-28 03:25 108 6 gusting 13 27.2
2016-Apr-28 03:10 116 5 gusting 11 27.8
2016-Apr-28 02:55 115 7 gusting 13 27.2
2016-Apr-28 02:40 077 6 gusting 13 27.8
2016-Apr-28 02:25 080 7 gusting 15 27.8
2016-Apr-28 02:10 082 5 gusting 13 27.8
2016-Apr-28 01:55 108 7 gusting 13 27.8
2016-Apr-28 01:40 045 7 gusting 13 27.8
2016-Apr-28 01:25 083 6 gusting 13 27.8
2016-Apr-28 01:10 065 8 gusting 13 27.2
2016-Apr-28 00:54 075 6 gusting 13 27.2
2016-Apr-28 00:39 016 6 gusting 11 27.8
2016-Apr-28 00:24 088 6 gusting 12 27.8
2016-Apr-28 00:09 051 6 gusting 13 27.8
2016-Apr-27 23:54 060 6 gusting 13 27.8
2016-Apr-27 23:39 073 5 gusting 11 27.8
2016-Apr-27 23:24 051 5 gusting 12 27.8
2016-Apr-27 23:09 117 5 gusting 11 27.8
2016-Apr-27 22:54 058 6 gusting 11 27.8
2016-Apr-27 22:39 058 6 gusting 11 28.3
2016-Apr-27 22:24 064 5 gusting 12 28.3
2016-Apr-27 22:09 139 7 gusting 13 28.3
2016-Apr-27 21:54 012 7 gusting 14 28.3
2016-Apr-27 21:39 130 6 gusting 13 28.9
2016-Apr-27 21:24 084 8 gusting 15 28.9
2016-Apr-27 21:09 049 6 gusting 15 29.4
2016-Apr-27 20:54 071 6 gusting 16 29.4
2016-Apr-27 20:39 083 10 gusting 15 30.0
2016-Apr-27 20:24 074 7 gusting 13 30.0
2016-Apr-27 20:09 075 9 gusting 13 30.0
2016-Apr-27 19:54 082 7 gusting 15 30.6
2016-Apr-27 19:39 088 9 gusting 15 30.0
2016-Apr-27 19:24 114 7 gusting 16 30.0
2016-Apr-27 19:09 098 9 gusting 14 30.6
2016-Apr-27 18:54 078 9 gusting 13 30.6
2016-Apr-27 18:39 086 7 gusting 15 30.6
2016-Apr-27 18:24 075 7 gusting 14 31.1
2016-Apr-27 18:09 082 6 gusting 13 31.1
2016-Apr-27 17:54 098 8 gusting 13 31.1
2016-Apr-27 17:39 108 8 gusting 14 31.1
2016-Apr-27 17:24 087 7 gusting 13 31.1
2016-Apr-27 17:09 094 7 gusting 13 31.1
2016-Apr-27 16:54 068 8 gusting 13 30.6
2016-Apr-27 16:39 064 7 gusting 15 31.1
2016-Apr-27 16:24 071 10 gusting 17 31.1
2016-Apr-27 16:09 067 10 gusting 18 31.1
2016-Apr-27 15:54 088 10 gusting 17 31.1
2016-Apr-27 15:39 093 8 gusting 14 31.1
2016-Apr-27 15:24 122 9 gusting 18 30.0
2016-Apr-27 15:09 108 13 gusting 18 30.0
2016-Apr-27 14:54 121 12 gusting 18 30.0
2016-Apr-27 14:39 120 7 gusting 19 30.6
2016-Apr-27 14:24 094 8 gusting 17 30.0
2016-Apr-27 14:09 105 12 gusting 16 30.0
2016-Apr-27 13:54 079 8 gusting 17 30.0
2016-Apr-27 13:39 117 6 gusting 16 29.4
2016-Apr-27 13:24 111 12 gusting 19 28.9
2016-Apr-27 13:09 105 7 gusting 17 28.9
2016-Apr-27 12:54 114 10 gusting 17 28.9
2016-Apr-27 12:38 152 7 gusting 14 28.3
2016-Apr-27 12:23 124 6 gusting 13 28.3
2016-Apr-27 12:08 130 10 gusting 18 27.8
2016-Apr-27 11:53 117 8 gusting 13 27.8
2016-Apr-27 11:38 114 7 gusting 13 27.2
2016-Apr-27 11:23 091 7 gusting 11 27.2
2016-Apr-27 11:08 069 7 gusting 14 26.7
2016-Apr-27 10:53 100 5 gusting 10 26.7
2016-Apr-27 10:38 086 5 gusting 8 26.7
2016-Apr-27 10:23 081 5 gusting 12 26.7
2016-Apr-27 10:08 074 6 gusting 10 26.7
2016-Apr-27 09:53 093 4 gusting 12 26.7
2016-Apr-27 09:38 103 6 gusting 10 26.7
2016-Apr-27 09:23 070 6 gusting 10 26.7
2016-Apr-27 09:08 106 4 gusting 9 26.7
2016-Apr-27 08:53 088 6 gusting 11 26.7
2016-Apr-27 08:38 072 5 gusting 11 26.7
2016-Apr-27 08:23 108 5 gusting 9 26.7
2016-Apr-27 08:08 110 2 gusting 6 26.7
2016-Apr-27 07:53 088 7 gusting 12 26.7
2016-Apr-27 07:38 098 4 gusting 10 26.7
2016-Apr-27 07:23 096 6 gusting 10 26.7
2016-Apr-27 07:08 120 2 gusting 12 27.2
2016-Apr-27 06:53 101 6 gusting 13 26.7
2016-Apr-27 06:38 086 5 gusting 11 26.7
2016-Apr-27 06:23 101 4 gusting 12 26.7
2016-Apr-27 06:08 105 6 gusting 12 26.7
2016-Apr-27 05:53 084 6 gusting 10 27.2
2016-Apr-27 05:38 071 6 gusting 12 27.2
2016-Apr-27 05:23 106 6 gusting 13 27.2
2016-Apr-27 05:08 081 4 gusting 10 27.2
2016-Apr-27 04:53 101 4 gusting 12 27.2
2016-Apr-27 04:38 104 6 gusting 13 27.2
2016-Apr-27 04:22 090 6 gusting 11 27.2
2016-Apr-27 04:07 105 6 gusting 11 27.2
2016-Apr-27 03:52 117 6 gusting 10 27.2
2016-Apr-27 03:37 084 6 gusting 11 27.2
2016-Apr-27 03:22 124 7 gusting 11 27.2
2016-Apr-27 03:06 070 5 gusting 10 27.2
2016-Apr-27 02:51 090 6 gusting 10 27.2
2016-Apr-27 02:36 100 5 gusting 10 27.2
2016-Apr-27 02:21 084 6 gusting 12 27.2
2016-Apr-27 02:06 121 6 gusting 10 27.2
2016-Apr-27 01:51 070 4 gusting 9 27.2
2016-Apr-27 01:36 130 6 gusting 13 27.2
2016-Apr-27 01:21 077 6 gusting 13 27.2
2016-Apr-27 01:06 071 8 gusting 13 27.2
2016-Apr-27 00:51 117 6 gusting 11 27.2
2016-Apr-27 00:36 094 7 gusting 12 27.2
2016-Apr-27 00:19 098 5 gusting 13 27.2
2016-Apr-27 00:04 084 8 gusting 14 27.2
2016-Apr-26 23:49 097 8 gusting 15 27.2
2016-Apr-26 23:34 097 8 gusting 11 27.8
2016-Apr-26 23:19 067 6 gusting 15 27.8
2016-Apr-26 23:03 047 6 gusting 13 27.8